Flight Track Log - Related Links

Times and Time Zones

All times are in EDT time to prevent confusion due to time zone crossing. See the ASQ4252 flight status page for this flight to view local times or setup timezone preferences in your user account.

Time Position Orientation Groundspeed Altitude Reporting Facility
EDT Latitude Longitude Course Direction KTS MPH feet Rate Location/Type
Sat 05:14:44 PM 40.6500 -74.2667 270° West 228 262 3,500  Level New York TRACON
Sat 05:15:44 PM 40.6500 -74.3500 270° West 245 282 5,800 2,053 Climbing New York TRACON
Sat 05:16:00 PM 40.6833 -74.4835 270° West  Level FlightAware Approximate
Sat 05:17:00 PM 40.6834 -74.5891 270° West  Level FlightAware Approximate
Sat 05:17:51 PM 40.6531 -74.5514 271° West 269 310 9,900  Level New York Center
Sat 05:18:00 PM 40.6833 -74.6948 270° West  Level FlightAware Approximate
Sat 05:18:52 PM 40.6617 -74.6775 275° West 306 352 10,700  Level New York Center
Sat 05:19:00 PM 40.6834 -74.8004 270° West  Level FlightAware Approximate
Sat 05:19:51 PM 40.6664 -74.7847 273° West 328 377 12,700  Level New York Center
Sat 05:20:52 PM 40.6728 -74.8972 274° West 323 372 14,900 1,426 Climbing New York Center
Sat 05:21:53 PM 40.6808 -75.0208 275° West 315 362 15,600 555 Climbing New York Center
Sat 05:22:51 PM 40.6783 -75.1492 269° West 339 390 16,000 814 Climbing New York Center
Sat 05:23:51 PM 40.6381 -75.2781 248° West 361 415 17,200 1,289 Climbing New York Center
Sat 05:24:52 PM 40.5814 -75.3944 237° Southwest 371 427 18,600 1,140 Climbing New York Center
Sat 05:25:52 PM 40.5250 -75.5053 236° Southwest 376 433 19,500 700 Climbing New York Center
Sat 05:26:52 PM 40.4658 -75.6242 237° Southwest 388 447 20,000 248 Climbing New York Center
Sat 05:27:53 PM 40.4047 -75.7453 236° Southwest 417 480 20,000  Level New York Center
Sat 05:28:52 PM 40.3411 -75.8686 236° Southwest 429 494 20,000  Level New York Center
Sat 05:29:52 PM 40.2661 -76.0072 235° Southwest 429 494 20,000 -151 Level New York Center
Sat 05:30:51 PM 40.2022 -76.1303 236° Southwest 424 488 19,700 -700 Descending New York Center
Sat 05:31:52 PM 40.1428 -76.2478 237° Southwest 418 481 18,600 -1,041 Descending New York Center
Sat 05:32:52 PM 40.0850 -76.3653 237° Southwest 400 460 17,600 -1,041 Descending New York Center
Sat 05:33:53 PM 40.0269 -76.4908 239° Southwest 399 459 16,500 -761 Descending New York Center
Sat 05:36:17 PM 39.9000 -76.7667 239° Southwest 381 438 15,000 -471 Descending Potomac TRACON
Sat 05:37:17 PM 39.8500 -76.8833 241° Southwest 380 437 14,900 -700 Descending Potomac TRACON
Sat 05:38:17 PM 39.7833 -77.0000 233° Southwest 377 434 13,600 -1,571 Descending Potomac TRACON
Sat 05:39:23 PM 39.7333 -77.1333 244° Southwest 367 422 11,600 -1,667 Descending Potomac TRACON
Sat 05:40:23 PM 39.6667 -77.2500 233° Southwest 353 406 10,100 -842 Descending Potomac TRACON
Sat 05:41:17 PM 39.6333 -77.3167 237° Southwest 330 380 10,000 -626 Descending Potomac TRACON
Sat 05:42:18 PM 39.5667 -77.3500 201° Southwest 233 268 8,900 -1,240 Descending Potomac TRACON
Sat 05:43:18 PM 39.5167 -77.4000 218° Southwest 248 285 7,500 -1,323 Descending Potomac TRACON
Sat 05:44:25 PM 39.4333 -77.4500 205° Southwest 256 295 6,100 -1,181 Descending Potomac TRACON
Sat 05:45:25 PM 39.3667 -77.4500 180° South 250 288 5,000 -895 Descending Potomac TRACON
Sat 05:46:19 PM 39.3167 -77.4500 180° South 251 289 4,400 -1,000 Descending Potomac TRACON
Sat 05:47:19 PM 39.2500 -77.4500 180° South 257 296 3,100 -700 Descending Potomac TRACON
Sat 05:48:19 PM 39.1667 -77.4500 180° South 252 290 3,000 -100 Descending Potomac TRACON

Login

Don't have an account? Register now (free) for customized features, flight alerts, and more!